createdAt,value
2023-01-17T00:05:18.565Z,1.10
2023-01-17T00:10:24.902Z,0.86
2023-01-17T00:15:30.829Z,0.78
2023-01-17T00:20:54.197Z,0.57
2023-01-17T00:26:04.943Z,0.98
2023-01-17T00:31:09.442Z,0.78
2023-01-17T00:36:13.990Z,0.71
2023-01-17T00:41:16.760Z,0.81
2023-01-17T00:46:39.630Z,0.72
2023-01-17T00:52:02.419Z,0.82
2023-01-17T00:57:25.042Z,0.64
2023-01-17T01:02:46.783Z,0.57
2023-01-17T01:08:09.852Z,0.62
2023-01-17T01:13:31.889Z,0.89
2023-01-17T01:18:53.607Z,0.75
2023-01-17T01:24:16.323Z,0.67
2023-01-17T01:29:37.975Z,0.88
2023-01-17T01:34:43.340Z,0.76
2023-01-17T01:39:48.809Z,0.77
2023-01-17T01:44:54.924Z,0.61
2023-01-17T01:50:01.933Z,0.61
2023-01-17T01:55:12.957Z,0.67
2023-01-17T02:00:20.652Z,1.03
2023-01-17T02:05:27.008Z,1.12
2023-01-17T02:10:34.751Z,0.49
2023-01-17T02:15:48.476Z,0.86
2023-01-17T02:21:03.960Z,0.97
2023-01-17T02:26:41.294Z,0.44
2023-01-17T02:31:50.840Z,1.00
2023-01-17T02:37:02.113Z,1.13
2023-01-17T02:42:09.594Z,1.44
2023-01-17T02:47:24.629Z,1.43
2023-01-17T02:52:45.089Z,1.52
2023-01-17T02:58:04.546Z,0.93
2023-01-17T03:03:20.744Z,0.83
2023-01-17T03:08:25.862Z,1.01
2023-01-17T03:13:29.959Z,1.14
2023-01-17T03:18:36.966Z,1.33
2023-01-17T03:23:41.028Z,1.30
2023-01-17T03:28:45.064Z,1.53
2023-01-17T03:33:50.515Z,1.52
2023-01-17T03:38:54.558Z,1.69
2023-01-17T03:43:58.604Z,1.71
2023-01-17T03:49:03.939Z,1.82
2023-01-17T03:54:07.975Z,1.50
2023-01-17T03:59:13.257Z,1.79
2023-01-17T04:04:18.814Z,2.02
2023-01-17T04:09:23.106Z,1.94
2023-01-17T04:14:27.396Z,1.97
2023-01-17T04:19:35.472Z,1.99
2023-01-17T04:24:39.556Z,2.15
2023-01-17T04:29:45.343Z,1.99
2023-01-17T04:34:52.054Z,1.88
2023-01-17T04:39:56.028Z,2.30
2023-01-17T04:45:00.112Z,1.90
2023-01-17T04:50:06.232Z,2.17
2023-01-17T04:55:10.658Z,2.06
2023-01-17T05:00:15.896Z,2.04
2023-01-17T05:05:21.539Z,2.24
2023-01-17T05:10:26.158Z,2.13
2023-01-17T05:15:31.120Z,2.07
2023-01-17T05:20:38.674Z,2.09
2023-01-17T05:25:44.882Z,1.88
2023-01-17T05:30:49.074Z,1.93
2023-01-17T05:35:54.513Z,1.96
2023-01-17T05:41:00.589Z,1.98
2023-01-17T05:46:04.909Z,2.16
2023-01-17T05:51:10.333Z,2.12
2023-01-17T05:56:14.393Z,1.94
2023-01-17T06:01:19.770Z,1.87
2023-01-17T06:06:25.550Z,1.99
2023-01-17T06:11:30.743Z,1.93
2023-01-17T06:16:36.381Z,1.99
2023-01-17T06:21:41.994Z,2.25
2023-01-17T06:26:46.066Z,2.24
2023-01-17T06:31:51.821Z,2.29
2023-01-17T06:36:57.196Z,2.48
2023-01-17T06:42:01.325Z,1.99
2023-01-17T06:47:05.766Z,2.24
2023-01-17T06:52:13.642Z,2.59
2023-01-17T06:57:17.638Z,2.52
2023-01-17T07:02:24.664Z,2.54
2023-01-17T07:07:31.377Z,2.52
2023-01-17T07:12:36.942Z,2.81
2023-01-17T07:17:41.107Z,3.15
2023-01-17T07:22:47.474Z,3.80
2023-01-17T07:27:54.811Z,3.82
2023-01-17T07:32:58.996Z,4.69
2023-01-17T07:38:05.859Z,4.83
2023-01-17T07:43:14.295Z,4.70
2023-01-17T07:48:22.205Z,4.64
2023-01-17T07:53:29.371Z,5.50
2023-01-17T07:58:35.846Z,6.04
2023-01-17T08:03:41.291Z,5.78
2023-01-17T08:08:47.140Z,6.15
2023-01-17T08:13:58.037Z,6.97
2023-01-17T08:19:02.045Z,7.47
2023-01-17T08:24:08.239Z,7.96
2023-01-17T08:29:12.853Z,7.72
2023-01-17T08:34:20.164Z,7.69
2023-01-17T08:39:27.753Z,7.80
2023-01-17T08:44:32.322Z,7.77
2023-01-17T08:49:36.579Z,7.80
2023-01-17T08:54:42.828Z,7.52
2023-01-17T08:59:50.359Z,7.49
2023-01-17T09:04:54.488Z,7.68
2023-01-17T09:10:00.122Z,7.55
2023-01-17T09:15:05.304Z,8.19
2023-01-17T09:20:10.745Z,8.02
2023-01-17T09:25:16.705Z,8.32
2023-01-17T09:30:20.899Z,8.41
2023-01-17T09:35:27.769Z,8.49
2023-01-17T09:40:33.933Z,8.15
2023-01-17T09:45:39.048Z,8.35
2023-01-17T09:50:48.827Z,8.34
2023-01-17T09:55:59.845Z,8.95
2023-01-17T10:01:14.797Z,9.04
2023-01-17T10:06:32.624Z,9.01
2023-01-17T10:11:50.254Z,8.67
2023-01-17T10:16:59.514Z,9.06
2023-01-17T10:22:14.065Z,8.74
2023-01-17T10:27:25.615Z,8.78
2023-01-17T10:32:35.142Z,8.55
2023-01-17T10:37:42.729Z,8.67
2023-01-17T10:42:53.615Z,8.53
2023-01-17T10:48:06.129Z,8.58
2023-01-17T10:53:18.456Z,8.80
2023-01-17T10:58:26.879Z,8.58
2023-01-17T11:03:31.567Z,8.61
2023-01-17T11:08:52.204Z,8.57
2023-01-17T11:14:03.235Z,8.72
2023-01-17T11:19:18.075Z,9.29
2023-01-17T11:24:37.822Z,8.82
2023-01-17T11:29:43.084Z,8.84
2023-01-17T11:35:08.393Z,8.80
2023-01-17T11:40:23.585Z,8.72
2023-01-17T11:45:30.984Z,8.81
2023-01-17T11:50:37.560Z,9.16
2023-01-17T11:55:41.857Z,9.36
2023-01-17T12:00:56.815Z,9.71
2023-01-17T12:06:09.285Z,10.17
2023-01-17T12:11:17.807Z,10.26
2023-01-17T12:16:31.280Z,10.37
2023-01-17T12:21:46.555Z,10.67
2023-01-17T12:27:00.451Z,11.03
2023-01-17T12:32:27.730Z,11.44
2023-01-17T12:37:38.852Z,11.74
2023-01-17T12:42:48.866Z,12.28
2023-01-17T12:48:01.989Z,12.37
2023-01-17T12:53:18.547Z,12.67
2023-01-17T12:58:25.816Z,12.93
2023-01-17T13:03:46.653Z,13.09
2023-01-17T13:08:56.933Z,13.34
2023-01-17T13:14:01.240Z,13.14
2023-01-17T13:19:19.781Z,13.10
2023-01-17T13:24:30.292Z,12.78
2023-01-17T13:29:50.670Z,12.40
2023-01-17T13:35:16.719Z,12.19
2023-01-17T13:40:34.535Z,12.05
2023-01-17T13:45:39.988Z,12.01
2023-01-17T13:50:53.207Z,11.55
2023-01-17T13:56:03.408Z,11.24
2023-01-17T14:01:12.903Z,11.00
2023-01-17T14:06:36.155Z,10.96
2023-01-17T14:11:53.938Z,10.62
2023-01-17T14:17:30.060Z,10.47
2023-01-17T14:22:40.813Z,10.20
2023-01-17T14:27:49.270Z,10.20
2023-01-17T14:33:16.706Z,10.10
2023-01-17T14:38:26.127Z,10.13
2023-01-17T14:43:34.997Z,10.04
2023-01-17T14:48:41.576Z,9.84
2023-01-17T14:53:58.211Z,9.89
2023-01-17T14:59:08.261Z,10.11
2023-01-17T15:04:26.877Z,10.17
2023-01-17T15:09:37.024Z,10.11
2023-01-17T15:14:46.415Z,10.04
2023-01-17T15:19:55.129Z,9.96
2023-01-17T15:25:02.862Z,10.05
2023-01-17T15:30:09.700Z,10.02
2023-01-17T15:35:19.028Z,10.06
2023-01-17T15:40:28.072Z,9.83
2023-01-17T15:45:36.180Z,9.82
2023-01-17T15:50:45.922Z,9.94
2023-01-17T15:55:53.745Z,9.88
2023-01-17T16:00:59.327Z,9.76
2023-01-17T16:06:05.088Z,9.73
2023-01-17T16:11:16.309Z,9.77
2023-01-17T16:16:24.652Z,9.80
2023-01-17T16:21:31.768Z,9.78
2023-01-17T16:26:37.238Z,9.80
2023-01-17T16:31:41.900Z,9.82
2023-01-17T16:36:45.994Z,9.84
2023-01-17T16:41:52.255Z,9.82
2023-01-17T16:47:00.415Z,9.95
2023-01-17T16:52:06.176Z,9.87
2023-01-17T16:57:12.745Z,9.92
2023-01-17T17:02:18.861Z,9.86
2023-01-17T17:07:23.330Z,9.82
2023-01-17T17:12:29.327Z,9.71
2023-01-17T17:17:39.559Z,9.70
2023-01-17T17:22:48.814Z,9.71
2023-01-17T17:27:54.603Z,9.73
2023-01-17T17:32:59.558Z,9.68
2023-01-17T17:38:05.773Z,9.76
2023-01-17T17:43:11.173Z,9.46
2023-01-17T17:48:15.191Z,9.51
2023-01-17T17:53:20.915Z,9.40
2023-01-17T17:58:27.374Z,9.66
2023-01-17T18:03:32.757Z,9.74
2023-01-17T18:08:38.984Z,9.43
2023-01-17T18:13:45.656Z,9.46
2023-01-17T18:18:51.690Z,9.56
2023-01-17T18:23:58.873Z,9.66
2023-01-17T18:29:07.673Z,9.68
2023-01-17T18:34:13.117Z,9.69
2023-01-17T18:39:19.261Z,9.51
2023-01-17T18:44:25.361Z,9.61
2023-01-17T18:49:32.698Z,9.56
2023-01-17T18:54:37.086Z,9.48
2023-01-17T18:59:44.399Z,9.73
2023-01-17T19:04:48.860Z,9.89
2023-01-17T19:09:53.254Z,9.85
2023-01-17T19:14:58.643Z,9.65
2023-01-17T19:20:03.786Z,9.50
2023-01-17T19:25:10.177Z,9.49
2023-01-17T19:30:17.889Z,9.57
2023-01-17T19:35:22.806Z,9.78
2023-01-17T19:40:28.799Z,9.90
2023-01-17T19:45:34.257Z,10.03
2023-01-17T19:50:38.357Z,10.11
2023-01-17T19:55:43.418Z,10.12
2023-01-17T20:00:49.017Z,9.97
2023-01-17T20:05:57.769Z,10.17
2023-01-17T20:11:03.467Z,10.28
2023-01-17T20:16:11.499Z,10.15
2023-01-17T20:21:18.383Z,10.44
2023-01-17T20:26:25.999Z,10.61
2023-01-17T20:31:32.349Z,10.78
2023-01-17T20:36:37.225Z,10.57
2023-01-17T20:41:42.698Z,10.63
2023-01-17T20:46:49.777Z,10.68
2023-01-17T20:51:55.715Z,10.65
2023-01-17T20:57:01.496Z,10.56
2023-01-17T21:02:11.005Z,10.63
2023-01-17T21:07:15.135Z,10.66
2023-01-17T21:12:19.367Z,10.72
2023-01-17T21:17:25.453Z,10.61
2023-01-17T21:22:31.149Z,10.75
2023-01-17T21:27:35.641Z,10.65
2023-01-17T21:32:41.097Z,10.55
2023-01-17T21:37:48.885Z,10.66
2023-01-17T21:42:53.656Z,10.75
2023-01-17T21:48:00.094Z,10.94
2023-01-17T21:53:04.642Z,10.82
2023-01-17T21:58:33.547Z,10.93
2023-01-17T22:03:39.154Z,10.89
2023-01-17T22:08:43.477Z,11.01
2023-01-17T22:13:48.579Z,10.99
2023-01-17T22:18:53.958Z,10.88
2023-01-17T22:24:00.561Z,10.85
2023-01-17T22:29:05.586Z,10.73
2023-01-17T22:34:11.161Z,10.76
2023-01-17T22:39:15.502Z,10.71
2023-01-17T22:44:22.105Z,10.81
2023-01-17T22:49:29.947Z,10.95
2023-01-17T22:54:34.074Z,10.97
2023-01-17T22:59:38.608Z,11.00
2023-01-17T23:04:44.106Z,10.96
2023-01-17T23:09:48.259Z,10.98
2023-01-17T23:15:09.558Z,11.07
2023-01-17T23:20:17.744Z,11.04
2023-01-17T23:25:22.443Z,11.05
2023-01-17T23:30:29.975Z,11.11
2023-01-17T23:35:41.689Z,11.13
2023-01-17T23:41:07.951Z,10.97
2023-01-17T23:46:13.984Z,11.07
2023-01-17T23:51:20.092Z,11.04
2023-01-17T23:56:25.974Z,10.99
